Time;durP1;ratioP1;P1;durP2;ratioP2;P2;SDS_P1;SDS_P2;PMS_P1;PMS_P2;Temp;Humidity;BMP_temperature;BMP_pressure;BME280_temperature;BME280_humidity;BME280_pressure;Samples;Min_cycle;Max_cycle;Signal;HPM_P1;HPM_P2
2022/03/22 00:00:09;;;;;;;3.45;2.55;;;19.50;42.60;;;;;;6170261;28;20035;-68
2022/03/22 00:03:10;;;;;;;4.75;3.30;;;19.50;42.50;;;;;;6169882;28;20406;-68
2022/03/22 00:06:10;;;;;;;3.70;2.78;;;19.50;42.60;;;;;;6170094;28;20034;-67
2022/03/22 00:09:11;;;;;;;4.03;2.60;;;19.50;42.50;;;;;;6170120;28;20706;-68
2022/03/22 00:12:12;;;;;;;4.50;2.85;;;19.50;42.50;;;;;;6181465;28;20034;-68
2022/03/22 00:15:13;;;;;;;3.80;2.30;;;19.50;42.60;;;;;;6193426;28;20478;-67
2022/03/22 00:18:13;;;;;;;3.80;2.38;;;19.50;42.60;;;;;;6194284;28;20343;-68
2022/03/22 00:21:14;;;;;;;4.53;2.60;;;19.50;42.60;;;;;;6193809;28;20037;-68
2022/03/22 00:24:15;;;;;;;4.03;2.80;;;19.50;42.60;;;;;;6193706;28;20169;-67
2022/03/22 00:27:15;;;;;;;4.50;2.65;;;19.50;42.60;;;;;;6192681;28;20120;-68
2022/03/22 00:30:21;;;;;;;5.30;2.78;;;19.40;42.60;;;;;;6193313;28;20066;-68
2022/03/22 00:33:22;;;;;;;3.90;2.28;;;19.50;42.70;;;;;;6193834;28;20029;-68
2022/03/22 00:36:23;;;;;;;3.00;2.22;;;19.50;42.70;;;;;;6193254;28;20034;-68
2022/03/22 00:39:23;;;;;;;3.08;2.53;;;19.40;42.60;;;;;;6193749;28;20019;-68
2022/03/22 00:42:25;;;;;;;3.30;2.50;;;19.50;42.80;;;;;;6194380;28;20456;-68
2022/03/22 00:45:32;;;;;;;3.13;2.13;;;19.50;42.80;;;;;;6197733;28;20034;-68
2022/03/22 00:48:33;;;;;;;4.30;2.70;;;19.50;42.80;;;;;;6198460;28;20117;-68
2022/03/22 00:51:34;;;;;;;3.35;2.20;;;19.50;42.80;;;;;;6198551;28;20026;-68
2022/03/22 00:54:35;;;;;;;3.72;2.40;;;19.50;42.80;;;;;;6198448;28;20057;-67
2022/03/22 00:57:36;;;;;;;3.53;2.20;;;19.50;42.80;;;;;;6197382;28;20405;-68
2022/03/22 01:00:38;;;;;;;3.35;2.35;;;19.50;42.90;;;;;;6197754;28;20861;-68
2022/03/22 01:03:38;;;;;;;4.75;2.53;;;19.50;42.90;;;;;;6197463;28;20112;-68
2022/03/22 01:06:39;;;;;;;2.67;2.08;;;19.40;42.80;;;;;;6197223;28;20286;-67
2022/03/22 01:09:39;;;;;;;3.97;2.22;;;19.50;42.90;;;;;;6197788;28;20030;-68
2022/03/22 01:12:43;;;;;;;4.40;2.58;;;19.40;42.80;;;;;;6197718;28;20023;-68
2022/03/22 01:15:44;;;;;;;3.20;2.30;;;19.50;42.90;;;;;;6197291;28;20030;-68
2022/03/22 01:18:44;;;;;;;3.15;2.38;;;19.50;43.00;;;;;;6197419;28;20497;-68
2022/03/22 01:21:45;;;;;;;3.97;2.63;;;19.50;42.90;;;;;;6197762;28;20039;-68
2022/03/22 01:24:45;;;;;;;3.15;2.20;;;19.50;42.90;;;;;;6196151;28;20121;-68
2022/03/22 01:27:47;;;;;;;2.50;1.90;;;19.50;42.90;;;;;;6197044;28;20042;-68
2022/03/22 01:30:49;;;;;;;4.32;2.55;;;19.40;42.90;;;;;;6197150;28;20030;-67
2022/03/22 01:33:49;;;;;;;3.70;2.40;;;19.50;42.90;;;;;;6196875;28;20022;-67
2022/03/22 01:36:50;;;;;;;3.35;2.40;;;19.50;43.00;;;;;;6197240;28;20030;-68
2022/03/22 01:39:50;;;;;;;3.03;2.30;;;19.50;42.90;;;;;;6196003;28;20455;-67
2022/03/22 01:42:53;;;;;;;2.92;2.13;;;19.40;42.90;;;;;;6195996;28;20042;-68
2022/03/22 01:45:54;;;;;;;3.47;2.40;;;19.40;42.90;;;;;;6196822;28;20027;-68
2022/03/22 01:48:55;;;;;;;3.13;2.22;;;19.50;43.00;;;;;;6196800;28;20033;-68
2022/03/22 01:51:56;;;;;;;3.78;2.30;;;19.50;43.00;;;;;;6197043;28;20085;-67
2022/03/22 01:54:56;;;;;;;4.00;2.53;;;19.40;42.90;;;;;;6194989;28;20105;-68
2022/03/22 01:57:57;;;;;;;3.55;2.50;;;19.40;42.90;;;;;;6196706;28;20384;-68
2022/03/22 02:05:51;;;;;;;2.67;2.10;;;19.40;43.00;;;;;;6196488;28;20643;-68
2022/03/22 02:07:41;;;;;;;3.53;2.25;;;19.40;42.90;;;;;;6196392;28;20041;-68
2022/03/22 02:10:42;;;;;;;3.90;2.40;;;19.40;42.90;;;;;;6196618;28;20026;-68
2022/03/22 02:13:43;;;;;;;3.00;2.00;;;19.50;43.10;;;;;;6196170;28;20038;-67
2022/03/22 02:16:43;;;;;;;2.40;1.95;;;19.50;43.10;;;;;;6195920;28;20041;-68
2022/03/22 02:19:46;;;;;;;3.53;2.35;;;19.50;43.10;;;;;;6195976;28;20029;-68
2022/03/22 02:23:04;;;;;;;3.00;2.28;;;19.40;43.00;;;;;;6194750;28;20114;-68
2022/03/22 02:26:05;;;;;;;2.70;2.10;;;19.40;43.00;;;;;;6195276;28;20069;-68
2022/03/22 02:29:05;;;;;;;3.03;1.98;;;19.40;42.90;;;;;;6195540;28;20034;-68
2022/03/22 02:32:07;;;;;;;3.10;2.30;;;19.40;43.00;;;;;;6195418;28;20034;-68
2022/03/22 02:35:08;;;;;;;3.25;2.30;;;19.40;43.00;;;;;;6195662;28;20093;-68
2022/03/22 02:38:09;;;;;;;3.50;2.22;;;19.50;43.10;;;;;;6195963;28;20018;-68
2022/03/22 02:41:21;;;;;;;3.75;2.38;;;19.40;43.00;;;;;;6195622;28;20034;-68
2022/03/22 02:44:21;;;;;;;3.47;2.40;;;19.40;43.00;;;;;;6195405;28;20064;-68
2022/03/22 02:47:22;;;;;;;3.33;2.00;;;19.40;43.00;;;;;;6195159;28;20052;-67
2022/03/22 02:50:22;;;;;;;2.88;2.03;;;19.40;43.00;;;;;;6195698;28;20422;-67
2022/03/22 02:53:23;;;;;;;3.28;1.98;;;19.40;43.10;;;;;;6195220;28;20425;-68
2022/03/22 02:56:23;;;;;;;3.35;2.42;;;19.50;43.10;;;;;;6195372;28;20189;-68
2022/03/22 02:59:24;;;;;;;3.15;2.05;;;19.40;43.10;;;;;;6195109;28;20036;-67
2022/03/22 03:02:24;;;;;;;3.63;2.22;;;19.40;43.10;;;;;;6195108;28;20058;-68
2022/03/22 03:05:25;;;;;;;3.58;2.40;;;19.50;43.20;;;;;;6194295;28;20045;-67
2022/03/22 03:08:26;;;;;;;4.13;2.50;;;19.50;43.20;;;;;;6194801;28;20108;-68
2022/03/22 03:11:27;;;;;;;4.10;2.28;;;19.40;43.10;;;;;;6195055;28;20041;-68
2022/03/22 03:14:39;;;;;;;2.92;2.17;;;19.40;43.10;;;;;;6195006;28;20073;-68
2022/03/22 03:17:40;;;;;;;2.70;2.10;;;19.40;43.10;;;;;;6194814;28;20022;-67
2022/03/22 03:20:40;;;;;;;3.30;2.30;;;19.40;43.10;;;;;;6195153;28;20031;-68
2022/03/22 03:23:41;;;;;;;3.97;2.50;;;19.40;43.10;;;;;;6195038;28;20141;-68
2022/03/22 03:26:41;;;;;;;3.50;2.42;;;19.40;43.10;;;;;;6193917;28;20042;-67
2022/03/22 03:29:42;;;;;;;3.53;2.30;;;19.40;43.10;;;;;;6193120;28;20032;-68
2022/03/22 03:32:43;;;;;;;2.72;2.00;;;19.40;43.10;;;;;;6194526;28;20085;-68
2022/03/22 03:35:43;;;;;;;2.83;2.08;;;19.40;43.10;;;;;;6194115;28;20463;-68
2022/03/22 03:38:44;;;;;;;3.08;2.17;;;19.40;43.10;;;;;;6194390;28;20018;-68
2022/03/22 03:41:53;;;;;;;2.70;2.13;;;19.40;43.10;;;;;;6194326;28;20037;-68
2022/03/22 03:48:13;;;;;;;3.20;2.20;;;19.50;43.20;;;;;;6194220;28;20062;-68
2022/03/22 03:51:14;;;;;;;3.55;2.20;;;19.40;43.10;;;;;;6194171;28;20550;-68
2022/03/22 03:54:14;;;;;;;4.07;2.40;;;19.40;43.10;;;;;;6194277;28;20065;-68
2022/03/22 03:57:15;;;;;;;3.17;2.17;;;19.50;43.10;;;;;;6193877;28;20508;-68
2022/03/22 04:00:16;;;;;;;4.43;2.65;;;19.40;43.10;;;;;;6194115;28;20041;-68
2022/03/22 04:03:17;;;;;;;3.38;2.50;;;19.40;43.00;;;;;;6194031;28;20041;-68
2022/03/22 04:06:17;;;;;;;3.65;2.35;;;19.50;43.10;;;;;;6193855;28;20339;-67
2022/03/22 04:09:18;;;;;;;3.03;2.25;;;19.40;43.00;;;;;;6193949;28;20029;-68
2022/03/22 04:12:22;;;;;;;3.15;2.20;;;19.40;43.10;;;;;;6193712;28;20385;-67
2022/03/22 04:15:23;;;;;;;2.75;1.88;;;19.40;43.10;;;;;;6193696;28;20043;-68
2022/03/22 04:18:24;;;;;;;3.17;2.10;;;19.50;43.30;;;;;;6195814;28;20435;-68
2022/03/22 04:21:25;;;;;;;3.05;2.08;;;19.40;43.00;;;;;;6198398;28;20038;-68
2022/03/22 04:24:25;;;;;;;3.55;2.20;;;19.40;43.00;;;;;;6198266;28;20457;-67
2022/03/22 04:34:04;;;;;;;3.10;2.13;;;19.40;43.00;;;;;;6198134;28;20069;-68
2022/03/22 04:37:06;;;;;;;3.70;2.30;;;19.40;43.10;;;;;;6198290;28;20037;-69
2022/03/22 04:40:07;;;;;;;3.90;2.40;;;19.40;43.10;;;;;;6198064;28;20023;-68
2022/03/22 04:43:08;;;;;;;2.72;2.03;;;19.50;43.10;;;;;;6198304;28;20125;-68
2022/03/22 04:46:08;;;;;;;3.28;2.38;;;19.40;43.00;;;;;;6198083;28;20026;-68
2022/03/22 04:49:09;;;;;;;3.03;2.00;;;19.40;43.10;;;;;;6198609;28;20022;-68
2022/03/22 04:58:51;;;;;;;3.17;2.33;;;19.40;43.00;;;;;;6197941;28;20651;-67
2022/03/22 05:01:51;;;;;;;2.78;2.20;;;19.40;43.10;;;;;;6198010;28;20019;-68
2022/03/22 05:04:52;;;;;;;2.72;2.08;;;19.40;42.90;;;;;;6197645;28;20247;-68
2022/03/22 05:07:52;;;;;;;2.78;1.98;;;19.40;43.10;;;;;;6198328;28;20117;-67
2022/03/22 05:10:55;;;;;;;3.00;1.90;;;19.40;43.00;;;;;;6198241;28;20034;-68
2022/03/22 05:13:56;;;;;;;2.92;2.13;;;19.40;43.00;;;;;;6197217;28;20035;-68
2022/03/22 05:16:58;;;;;;;3.42;2.03;;;19.40;42.90;;;;;;6197398;28;20421;-68
2022/03/22 05:19:58;;;;;;;3.13;2.03;;;19.40;43.00;;;;;;6198044;28;20065;-68
2022/03/22 05:22:59;;;;;;;2.92;2.13;;;19.40;42.90;;;;;;6197696;28;20057;-68
2022/03/22 05:26:00;;;;;;;3.17;2.00;;;19.50;43.00;;;;;;6196505;28;20207;-68
2022/03/22 05:29:04;;;;;;;3.25;2.30;;;19.40;42.80;;;;;;6196588;28;20060;-68
2022/03/22 05:32:05;;;;;;;2.67;1.90;;;19.50;42.90;;;;;;6197035;28;20065;-68
2022/03/22 05:35:06;;;;;;;2.95;2.28;;;19.50;42.90;;;;;;6197566;28;20033;-68
2022/03/22 05:38:06;;;;;;;2.92;1.75;;;19.50;42.80;;;;;;6196944;28;20026;-68
2022/03/22 05:41:08;;;;;;;3.10;2.30;;;19.50;42.90;;;;;;6197350;28;20027;-67
2022/03/22 05:44:13;;;;;;;3.60;2.50;;;19.50;42.90;;;;;;6196691;28;20061;-68
2022/03/22 05:47:13;;;;;;;3.33;2.10;;;19.50;42.90;;;;;;6196632;28;20038;-68
2022/03/22 05:50:14;;;;;;;3.08;2.00;;;19.50;42.90;;;;;;6196212;28;20856;-68
2022/03/22 05:53:15;;;;;;;2.88;2.10;;;19.50;43.50;;;;;;6196898;28;20022;-67
2022/03/22 05:56:15;;;;;;;3.70;1.90;;;19.50;42.80;;;;;;6196739;28;20508;-67
2022/03/22 05:59:16;;;;;;;3.28;2.20;;;19.50;42.90;;;;;;6196739;28;20026;-68
2022/03/22 06:02:16;;;;;;;3.92;2.28;;;19.50;42.80;;;;;;6183385;28;20060;-68
2022/03/22 06:05:17;;;;;;;3.15;2.20;;;19.50;43.60;;;;;;6171923;28;20074;-68
2022/03/22 06:08:19;;;;;;;3.20;2.25;;;19.50;42.90;;;;;;6172321;28;20042;-68
2022/03/22 06:11:20;;;;;;;2.58;2.00;;;19.50;42.90;;;;;;6172270;28;20452;-68
2022/03/22 06:14:20;;;;;;;3.15;2.10;;;19.50;43.00;;;;;;6172475;28;20033;-68
2022/03/22 06:17:21;;;;;;;3.72;2.28;;;19.50;42.90;;;;;;6171665;28;20027;-68
2022/03/22 06:20:23;;;;;;;3.40;2.10;;;19.50;42.90;;;;;;6172276;28;20030;-68
2022/03/22 06:23:24;;;;;;;3.08;2.00;;;19.50;42.80;;;;;;6172239;28;20477;-68
2022/03/22 06:26:25;;;;;;;2.90;2.15;;;19.50;42.90;;;;;;6188196;28;20046;-68
2022/03/22 06:29:25;;;;;;;3.33;2.08;;;19.50;42.90;;;;;;6195349;28;20062;-68
2022/03/22 06:32:26;;;;;;;3.25;2.05;;;19.50;43.00;;;;;;6195997;28;20064;-68
2022/03/22 06:35:33;;;;;;;2.65;1.98;;;19.50;42.90;;;;;;6182863;28;20026;-68
2022/03/22 06:38:34;;;;;;;3.05;2.05;;;19.50;42.80;;;;;;6189853;28;20138;-67
2022/03/22 06:41:35;;;;;;;9.48;2.85;;;19.50;43.60;;;;;;6204610;28;20038;-67
2022/03/22 06:44:37;;;;;;;5.82;2.67;;;19.50;43.20;;;;;;6193858;28;20035;-67
2022/03/22 06:47:39;;;;;;;6.50;2.38;;;19.50;43.10;;;;;;6192581;28;20262;-67
2022/03/22 06:50:42;;;;;;;6.20;2.70;;;19.50;43.00;;;;;;6194254;28;20505;-67
2022/03/22 06:53:42;;;;;;;3.45;2.22;;;19.50;42.80;;;;;;6198108;28;20417;-67
2022/03/22 06:56:44;;;;;;;2.75;2.03;;;19.60;42.90;;;;;;6193568;28;20105;-67
2022/03/22 06:59:44;;;;;;;3.90;2.50;;;19.60;42.80;;;;;;6189237;28;20367;-67
2022/03/22 07:02:47;;;;;;;5.40;2.75;;;19.50;42.90;;;;;;6180848;28;20117;-67
2022/03/22 07:05:47;;;;;;;4.05;2.00;;;19.50;42.90;;;;;;6205406;28;20037;-68
2022/03/22 07:08:48;;;;;;;3.28;2.20;;;19.50;43.00;;;;;;6207447;28;20029;-68
2022/03/22 07:11:52;;;;;;;3.92;2.40;;;19.50;43.10;;;;;;6220372;28;20025;-67
2022/03/22 07:14:53;;;;;;;3.42;2.63;;;19.50;43.00;;;;;;6220551;28;20054;-67
2022/03/22 07:17:54;;;;;;;3.83;2.20;;;19.50;43.10;;;;;;6220579;28;20025;-67
2022/03/22 07:20:55;;;;;;;3.67;2.08;;;19.50;43.00;;;;;;6220031;28;20061;-67
2022/03/22 07:23:55;;;;;;;4.47;2.45;;;19.50;43.00;;;;;;6182400;28;20077;-67
2022/03/22 07:26:56;;;;;;;5.85;2.50;;;19.50;43.10;;;;;;6189742;28;20453;-67
2022/03/22 07:29:57;;;;;;;5.55;2.33;;;19.50;43.10;;;;;;6195853;28;20097;-67
2022/03/22 07:32:58;;;;;;;4.05;2.40;;;19.50;43.10;;;;;;6196517;28;20026;-67
2022/03/22 07:35:59;;;;;;;5.57;2.75;;;19.50;43.20;;;;;;6196667;28;20041;-67
2022/03/22 07:39:00;;;;;;;3.33;2.28;;;19.50;43.00;;;;;;6195886;28;20026;-67
2022/03/22 07:42:01;;;;;;;6.07;2.65;;;19.50;42.90;;;;;;6196581;28;20026;-67
2022/03/22 07:45:05;;;;;;;4.22;3.00;;;19.50;43.00;;;;;;6195744;28;20194;-67
2022/03/22 07:48:06;;;;;;;9.27;2.97;;;19.60;42.90;;;;;;6196309;28;20042;-68
2022/03/22 07:54:25;;;;;;;5.03;3.08;;;19.50;42.80;;;;;;6196620;28;20030;-67
2022/03/22 07:57:26;;;;;;;3.63;2.55;;;19.50;42.60;;;;;;6195373;28;20761;-67
2022/03/22 08:00:29;;;;;;;4.70;2.70;;;19.60;43.50;;;;;;6195987;28;20062;-67
2022/03/22 08:03:30;;;;;;;3.58;2.50;;;19.50;42.80;;;;;;6196511;28;20042;-67
2022/03/22 08:06:31;;;;;;;4.47;2.90;;;19.60;42.90;;;;;;6195775;28;20073;-68
2022/03/22 08:09:31;;;;;;;4.45;2.80;;;19.60;42.80;;;;;;6196103;28;20030;-67
2022/03/22 08:12:32;;;;;;;5.13;3.15;;;19.50;42.70;;;;;;6195890;28;20100;-68
2022/03/22 08:15:33;;;;;;;5.25;2.78;;;19.60;43.50;;;;;;6195647;28;20027;-67
2022/03/22 08:18:33;;;;;;;6.13;2.58;;;19.60;42.80;;;;;;6195602;28;20073;-67
2022/03/22 08:21:34;;;;;;;5.78;3.13;;;19.50;42.80;;;;;;6196412;28;20022;-68
2022/03/22 08:24:35;;;;;;;3.80;2.65;;;19.50;42.80;;;;;;6195590;28;20041;-67
2022/03/22 08:27:35;;;;;;;5.88;2.95;;;19.50;42.80;;;;;;6195316;28;20316;-67
2022/03/22 08:30:37;;;;;;;4.05;2.80;;;19.50;42.90;;;;;;6195305;28;20394;-67
2022/03/22 08:33:38;;;;;;;5.20;3.20;;;19.50;42.80;;;;;;6195483;28;20030;-67
2022/03/22 08:36:39;;;;;;;5.85;3.08;;;19.50;42.80;;;;;;6195379;28;20092;-67
2022/03/22 08:39:39;;;;;;;6.65;3.78;;;19.50;42.70;;;;;;6195874;28;20027;-67
2022/03/22 08:42:45;;;;;;;4.47;2.95;;;19.60;42.80;;;;;;6195129;28;20102;-67
2022/03/22 08:45:46;;;;;;;5.00;2.83;;;19.50;42.80;;;;;;6193860;28;20124;-67
2022/03/22 08:48:47;;;;;;;4.25;2.80;;;19.50;42.70;;;;;;6195528;28;20084;-67
2022/03/22 08:51:49;;;;;;;4.25;2.90;;;19.50;42.70;;;;;;6195739;28;20037;-67
2022/03/22 08:54:51;;;;;;;4.35;2.55;;;19.60;42.80;;;;;;6195345;28;20030;-67
2022/03/22 08:57:52;;;;;;;5.05;2.72;;;19.60;42.80;;;;;;6196193;28;20042;-67
2022/03/22 09:00:52;;;;;;;4.30;2.70;;;19.50;42.80;;;;;;6195494;28;20394;-68
2022/03/22 09:07:23;;;;;;;3.72;2.70;;;19.50;42.70;;;;;;6197429;28;20050;-68
2022/03/22 09:10:25;;;;;;;5.38;2.88;;;19.50;42.70;;;;;;6199966;28;20045;-67
2022/03/22 09:13:28;;;;;;;4.82;3.00;;;19.50;42.80;;;;;;6199716;28;20038;-68
2022/03/22 09:16:31;;;;;;;4.38;2.83;;;19.50;42.90;;;;;;6199672;28;20246;-67
2022/03/22 09:19:34;;;;;;;3.75;2.60;;;19.50;43.00;;;;;;6199904;28;20081;-67
2022/03/22 09:22:35;;;;;;;4.90;3.10;;;19.50;43.00;;;;;;6198455;28;20033;-67
2022/03/22 09:25:36;;;;;;;4.95;2.83;;;19.50;42.90;;;;;;6199070;28;20034;-67
2022/03/22 09:28:37;;;;;;;3.15;2.22;;;19.50;42.80;;;;;;6198613;28;20053;-68
2022/03/22 09:31:38;;;;;;;4.13;2.67;;;19.50;42.90;;;;;;6199577;28;20034;-68
2022/03/22 09:34:40;;;;;;;4.53;2.95;;;19.50;42.90;;;;;;6199207;28;20069;-68
2022/03/22 09:37:42;;;;;;;5.22;2.75;;;19.60;43.00;;;;;;6199922;28;20065;-67
2022/03/22 09:40:43;;;;;;;5.68;2.80;;;19.60;43.10;;;;;;6199430;28;20590;-67
2022/03/22 09:43:46;;;;;;;6.43;2.72;;;19.50;43.10;;;;;;6199041;28;20030;-67
2022/03/22 09:46:50;;;;;;;4.35;2.70;;;19.50;43.10;;;;;;6198792;28;20386;-67
2022/03/22 09:49:51;;;;;;;4.25;2.97;;;19.60;43.10;;;;;;6198995;28;20444;-67
2022/03/22 09:52:51;;;;;;;4.00;2.67;;;19.50;43.10;;;;;;6199033;28;20032;-67
2022/03/22 09:55:52;;;;;;;5.05;2.90;;;19.50;43.00;;;;;;6198500;28;20106;-67
2022/03/22 09:58:53;;;;;;;4.57;2.72;;;19.50;42.90;;;;;;6199326;28;20030;-67
2022/03/22 10:01:53;;;;;;;4.22;2.45;;;19.50;43.80;;;;;;6199134;28;20486;-67
2022/03/22 10:04:54;;;;;;;4.93;2.70;;;19.50;43.10;;;;;;6197980;28;20034;-68
2022/03/22 10:07:58;;;;;;;5.28;2.55;;;19.60;43.20;;;;;;6198713;28;20080;-67
2022/03/22 10:11:01;;;;;;;5.30;2.92;;;19.60;43.20;;;;;;6198281;28;20034;-68
2022/03/22 10:14:01;;;;;;;3.42;2.45;;;19.60;43.20;;;;;;6197887;28;20053;-67
2022/03/22 10:17:13;;;;;;;4.45;2.55;;;19.60;43.20;;;;;;6197346;28;20435;-68
2022/03/22 10:20:23;;;;;;;5.60;2.72;;;19.60;43.20;;;;;;6198922;28;20037;-67
2022/03/22 10:23:23;;;;;;;4.65;2.95;;;19.60;43.30;;;;;;6197653;28;20039;-67
2022/03/22 10:26:33;;;;;;;4.20;2.63;;;19.60;43.30;;;;;;6196899;28;20081;-67
2022/03/22 10:29:34;;;;;;;4.60;3.13;;;19.60;43.30;;;;;;6181773;28;20545;-68
2022/03/22 10:32:39;;;;;;;4.35;2.40;;;19.60;43.30;;;;;;6198293;28;20100;-67
2022/03/22 10:35:45;;;;;;;;;;;19.60;43.30;;;;;;6198233;28;20469;-67
2022/03/22 10:38:57;;;;;;;3.55;2.38;;;19.60;43.30;;;;;;6197926;28;19916;-67
2022/03/22 10:42:06;;;;;;;3.83;2.38;;;19.60;43.30;;;;;;6198267;28;20026;-68
2022/03/22 10:45:07;;;;;;;3.47;2.40;;;19.60;43.30;;;;;;6172758;28;20046;-68
2022/03/22 10:48:08;;;;;;;4.47;2.90;;;19.60;43.30;;;;;;6173650;28;20428;-67
2022/03/22 10:51:08;;;;;;;3.65;2.42;;;19.60;43.30;;;;;;6188159;28;20057;-67
2022/03/22 10:54:12;;;;;;;3.83;2.50;;;19.60;43.30;;;;;;6196982;28;20109;-67
2022/03/22 10:57:15;;;;;;;4.97;2.42;;;19.60;43.30;;;;;;6196967;28;20026;-68
2022/03/22 11:00:17;;;;;;;3.60;2.22;;;19.60;43.30;;;;;;6197340;28;20027;-68
2022/03/22 11:03:18;;;;;;;3.67;2.47;;;19.60;43.30;;;;;;6197308;28;20066;-68
2022/03/22 11:06:21;;;;;;;3.67;2.40;;;19.60;43.30;;;;;;6197413;28;20101;-68
2022/03/22 11:09:22;;;;;;;3.03;2.10;;;19.60;43.40;;;;;;6197259;28;20026;-67
2022/03/22 11:12:23;;;;;;;3.78;2.40;;;19.50;43.30;;;;;;6197131;28;20021;-67
2022/03/22 11:15:32;;;;;;;6.55;2.22;;;19.60;43.40;;;;;;6196409;28;20474;-67
2022/03/22 11:18:34;;;;;;;3.90;2.65;;;19.60;43.30;;;;;;6196890;28;20034;-68
2022/03/22 11:21:37;;;;;;;4.13;2.53;;;19.60;43.40;;;;;;6197116;28;20108;-67
2022/03/22 11:24:38;;;;;;;4.53;2.67;;;19.50;43.30;;;;;;6196114;28;20042;-68
2022/03/22 11:27:39;;;;;;;3.83;2.50;;;19.60;43.40;;;;;;6196057;28;20049;-68
2022/03/22 11:30:41;;;;;;;3.97;2.63;;;19.60;43.40;;;;;;6196435;28;20053;-67
2022/03/22 11:37:02;;;;;;;3.88;2.30;;;19.60;43.40;;;;;;6196144;28;20034;-67
2022/03/22 11:43:23;;;;;;;3.00;2.20;;;19.60;43.50;;;;;;6196150;28;20460;-68
2022/03/22 11:46:32;;;;;;;3.88;2.90;;;19.50;43.40;;;;;;6184566;28;20040;-68
2022/03/22 11:49:47;;;;;;;3.67;2.38;;;19.60;43.40;;;;;;6200194;28;20018;-68
2022/03/22 11:52:54;;;;;;;3.55;2.20;;;19.50;43.40;;;;;;6209591;28;20026;-68
2022/03/22 11:55:57;;;;;;;3.33;2.47;;;19.50;43.40;;;;;;6194007;28;20037;-68
2022/03/22 11:58:57;;;;;;;2.90;1.90;;;19.60;43.50;;;;;;6192279;28;20026;-67
2022/03/22 12:02:00;;;;;;;2.63;2.13;;;19.50;43.40;;;;;;6194124;28;20033;-67
2022/03/22 12:05:02;;;;;;;3.78;2.40;;;19.60;43.50;;;;;;6194043;28;20030;-67
2022/03/22 12:08:08;;;;;;;3.53;2.38;;;19.60;43.50;;;;;;6194635;28;20112;-67
2022/03/22 12:11:16;;;;;;;7.35;2.75;;;19.60;43.50;;;;;;6194407;28;20041;-68
2022/03/22 12:14:34;;;;;;;3.58;2.53;;;19.50;43.60;;;;;;6194560;28;20378;-68
2022/03/22 12:17:36;;;;;;;3.58;2.30;;;19.50;43.50;;;;;;6193577;28;20034;-67
2022/03/22 12:20:37;;;;;;;3.85;1.92;;;19.50;43.50;;;;;;6194111;28;20036;-67
2022/03/22 12:23:38;;;;;;;5.32;2.45;;;19.50;43.50;;;;;;6192840;28;20026;-68
2022/03/22 12:26:38;;;;;;;5.60;2.20;;;19.50;43.50;;;;;;6194234;28;20055;-68
2022/03/22 12:29:41;;;;;;;3.58;2.33;;;19.60;43.60;;;;;;6194847;28;20101;-67
2022/03/22 12:32:43;;;;;;;4.10;2.28;;;19.60;43.60;;;;;;6194821;28;20053;-67
2022/03/22 12:35:45;;;;;;;3.50;2.42;;;19.50;43.60;;;;;;6193914;28;20124;-67
2022/03/22 12:38:46;;;;;;;3.08;1.98;;;19.50;43.60;;;;;;6196134;28;20532;-67
2022/03/22 12:41:46;;;;;;;3.60;2.17;;;19.60;43.70;;;;;;6198312;28;20113;-68
2022/03/22 12:44:47;;;;;;;3.72;2.70;;;19.60;43.60;;;;;;6198881;28;20412;-68
2022/03/22 12:47:48;;;;;;;4.45;2.20;;;19.50;43.60;;;;;;6198185;28;20382;-68
2022/03/22 12:50:54;;;;;;;3.53;2.30;;;19.50;43.60;;;;;;6210525;28;20037;-68
2022/03/22 12:53:54;;;;;;;;;;;19.60;43.70;;;;;;6198634;28;20053;-67
2022/03/22 12:56:56;;;;;;;3.05;2.10;;;19.50;43.70;;;;;;6198759;28;19910;-67
2022/03/22 12:59:57;;;;;;;4.50;2.17;;;19.50;43.60;;;;;;6198606;28;20026;-67
2022/03/22 13:03:13;;;;;;;2.53;2.00;;;19.60;43.70;;;;;;6198195;28;20097;-67
2022/03/22 13:06:13;;;;;;;3.45;2.10;;;19.50;43.70;;;;;;6198302;28;20049;-66
2022/03/22 13:12:34;;;;;;;6.43;2.30;;;19.70;43.90;;;;;;6198413;28;20576;-69
2022/03/22 13:15:35;;;;;;;3.17;2.20;;;19.80;44.20;;;;;;6198532;28;20033;-67
2022/03/22 13:18:35;;;;;;;9.30;2.40;;;19.80;44.00;;;;;;6197898;28;20751;-69
2022/03/22 13:21:38;;;;;;;13.05;2.50;;;19.80;44.10;;;;;;6196465;28;20433;-68
2022/03/22 13:24:38;;;;;;;7.45;2.38;;;19.80;44.30;;;;;;6198012;28;20041;-68
2022/03/22 13:27:39;;;;;;;17.38;2.50;;;19.80;44.20;;;;;;6198141;28;20477;-68
2022/03/22 13:30:44;;;;;;;5.95;2.40;;;19.80;44.30;;;;;;6189837;28;20026;-68
2022/03/22 13:33:53;;;;;;;7.10;2.38;;;19.70;44.10;;;;;;6197195;28;20026;-68
2022/03/22 13:37:08;;;;;;;5.45;2.13;;;19.70;44.10;;;;;;6197361;28;20045;-69
2022/03/22 13:40:09;;;;;;;5.45;2.22;;;19.70;44.20;;;;;;6197877;28;20025;-69
2022/03/22 13:43:10;;;;;;;5.22;2.47;;;19.70;44.30;;;;;;6197686;28;20121;-69
2022/03/22 13:46:11;;;;;;;6.93;2.13;;;19.70;44.30;;;;;;6197624;28;20031;-69
2022/03/22 13:49:12;;;;;;;7.25;2.15;;;19.60;44.30;;;;;;6202747;28;20486;-69
2022/03/22 13:52:25;;;;;;;3.78;2.10;;;19.60;44.10;;;;;;6215855;28;20101;-68
2022/03/22 13:55:26;;;;;;;6.90;2.08;;;19.60;44.20;;;;;;6197548;28;20023;-68
2022/03/22 13:58:36;;;;;;;3.10;2.28;;;19.60;44.20;;;;;;6197168;28;20101;-68
2022/03/22 14:01:37;;;;;;;2.17;1.80;;;19.60;44.10;;;;;;6197241;28;20046;-68
2022/03/22 14:04:37;;;;;;;3.97;1.95;;;19.70;44.30;;;;;;6197293;28;20030;-68
2022/03/22 14:07:49;;;;;;;3.78;1.90;;;19.70;44.30;;;;;;6196979;28;20110;-68
2022/03/22 14:10:52;;;;;;;6.50;2.20;;;19.70;44.20;;;;;;6196000;28;20022;-66
2022/03/22 14:13:55;;;;;;;6.18;2.40;;;19.80;44.30;;;;;;6197027;28;20053;-67
2022/03/22 14:16:55;;;;;;;5.40;2.60;;;19.80;44.20;;;;;;6196710;28;20022;-65
2022/03/22 14:19:56;;;;;;;4.35;2.40;;;19.90;43.80;;;;;;6196904;28;20366;-66
2022/03/22 14:22:58;;;;;;;8.55;2.80;;;19.90;44.10;;;;;;6196400;28;20060;-66
2022/03/22 14:25:58;;;;;;;9.13;2.80;;;19.90;44.00;;;;;;6195520;28;20031;-65
2022/03/22 14:28:59;;;;;;;9.13;3.08;;;20.00;44.20;;;;;;6196182;28;20054;-67
2022/03/22 14:31:59;;;;;;;9.43;2.80;;;20.00;44.10;;;;;;6195447;28;20023;-68
2022/03/22 14:38:38;;;;;;;7.97;3.10;;;20.10;44.60;;;;;;6169172;28;20034;-67
2022/03/22 14:41:39;;;;;;;10.10;3.28;;;20.00;44.40;;;;;;6158722;28;20373;-67
2022/03/22 14:44:42;;;;;;;11.18;2.83;;;20.00;44.30;;;;;;6192017;28;20121;-67
2022/03/22 14:47:42;;;;;;;7.60;3.33;;;19.90;44.30;;;;;;6196150;28;20027;-67
2022/03/22 14:50:43;;;;;;;8.20;4.03;;;19.90;44.30;;;;;;6212648;28;20068;-67
2022/03/22 15:00:22;;;;;;;7.50;3.40;;;19.80;44.30;;;;;;6195449;28;20026;-67
2022/03/22 15:03:27;;;;;;;9.48;3.83;;;19.80;44.50;;;;;;6195866;28;20440;-67
2022/03/22 15:06:28;;;;;;;8.52;3.33;;;19.70;44.30;;;;;;6195571;28;20452;-67
2022/03/22 15:09:28;;;;;;;6.60;3.83;;;19.70;44.30;;;;;;6195732;28;20038;-67
2022/03/22 15:12:29;;;;;;;5.53;3.17;;;19.70;44.30;;;;;;6194437;28;20022;-67
2022/03/22 15:15:33;;;;;;;8.27;3.90;;;19.70;44.40;;;;;;6195748;28;20019;-67
2022/03/22 15:18:35;;;;;;;8.30;3.95;;;19.70;44.30;;;;;;6195207;28;20458;-67
2022/03/22 15:21:36;;;;;;;7.15;3.47;;;19.70;44.30;;;;;;6195069;28;20022;-67
2022/03/22 15:24:37;;;;;;;7.25;3.70;;;19.70;44.40;;;;;;6194796;28;20053;-67
2022/03/22 15:27:38;;;;;;;7.93;3.45;;;19.70;44.40;;;;;;6195049;28;20080;-67
2022/03/22 15:30:39;;;;;;;9.43;3.72;;;19.70;44.50;;;;;;6201475;28;20080;-67
2022/03/22 15:33:40;;;;;;;7.35;3.67;;;19.70;44.40;;;;;;6194730;28;20030;-67
2022/03/22 15:36:41;;;;;;;8.32;3.60;;;19.70;45.20;;;;;;6194009;28;20225;-67
2022/03/22 15:39:42;;;;;;;5.85;3.35;;;19.70;44.40;;;;;;6194955;28;20031;-68
2022/03/22 15:42:42;;;;;;;6.32;3.42;;;19.70;44.40;;;;;;6193555;28;20038;-67
2022/03/22 15:45:43;;;;;;;9.23;3.75;;;19.70;44.50;;;;;;6194380;28;20056;-67
2022/03/22 15:48:43;;;;;;;9.23;3.58;;;19.70;44.60;;;;;;6195423;28;20042;-67
2022/03/22 15:51:44;;;;;;;5.25;3.00;;;19.70;44.50;;;;;;6204841;28;20026;-66
2022/03/22 15:54:45;;;;;;;7.55;3.40;;;19.70;44.60;;;;;;6192516;28;20064;-67
2022/03/22 15:57:46;;;;;;;6.82;3.50;;;19.70;44.50;;;;;;6194006;28;20038;-67
2022/03/22 16:00:47;;;;;;;6.55;3.42;;;19.70;44.50;;;;;;6193454;28;20481;-66
2022/03/22 16:03:48;;;;;;;6.95;3.42;;;19.70;44.50;;;;;;6193909;28;20034;-66
2022/03/22 16:06:49;;;;;;;6.57;3.25;;;19.70;44.50;;;;;;6193136;28;20026;-66
2022/03/22 16:09:50;;;;;;;5.90;3.25;;;19.60;44.40;;;;;;6193740;28;20018;-67
2022/03/22 16:12:50;;;;;;;7.28;3.38;;;19.60;44.40;;;;;;6192341;28;20456;-67
2022/03/22 16:15:51;;;;;;;5.97;3.33;;;19.60;44.50;;;;;;6193585;28;20041;-67
2022/03/22 16:18:52;;;;;;;6.60;3.10;;;19.60;44.40;;;;;;6192896;28;20022;-67
2022/03/22 16:21:52;;;;;;;7.30;3.15;;;19.60;44.50;;;;;;6193665;28;20084;-67
2022/03/22 16:24:53;;;;;;;7.53;3.42;;;19.60;44.50;;;;;;6191375;28;20030;-67
2022/03/22 16:27:54;;;;;;;6.25;3.17;;;19.60;44.50;;;;;;6157335;28;1040420;-67
2022/03/22 16:30:56;;;;;;;6.93;3.20;;;19.60;44.40;;;;;;6193010;28;20584;-66
2022/03/22 16:37:15;;;;;;;6.45;3.13;;;19.60;44.50;;;;;;6193886;28;20485;-67